Bevent, Wisconsin
Current Conditions -  °F | °C
As of 1:15 AM on Friday 19 Dec 2014 (Local Time) from KCWA Reporting Station
Clear Clear  
Wind Chill: 11°   Ceiling: Unl
Heat Index: 18°   Visibility: 10mi
Dew Point: 18°   Wind: 5mph
Humidity: 100%   Direction: 310°NW
Pressure: 30.26"   Gusts: NA
Location:  44.8205°N, 89.392°W
Report Text: KCWA 190715Z AUTO 31004KT 10SM CLR M08/M08 A3026 RMK AO2
Loading
Personal Weather Stations






























Interactive Weather Map New forecast layout! Learn more

10-Day Weather Forecast

Advertisements
Track Severe Weather on mobile